sensor_id;sensor_type;location;lat;lon;timestamp;temperature;humidity
68556;HTU21D;55544;51.032;5.866;2023-02-28T00:00:21;3.43;61.38
68556;HTU21D;55544;51.032;5.866;2023-02-28T00:02:47;3.41;61.62
68556;HTU21D;55544;51.032;5.866;2023-02-28T00:05:16;3.40;61.88
68556;HTU21D;55544;51.032;5.866;2023-02-28T00:07:42;3.44;61.81
68556;HTU21D;55544;51.032;5.866;2023-02-28T00:10:12;3.47;61.54
68556;HTU21D;55544;51.032;5.866;2023-02-28T00:12:39;3.48;61.38
68556;HTU21D;55544;51.032;5.866;2023-02-28T00:15:06;3.48;61.44
68556;HTU21D;55544;51.032;5.866;2023-02-28T00:17:32;3.52;61.34
68556;HTU21D;55544;51.032;5.866;2023-02-28T00:19:58;3.52;61.24
68556;HTU21D;55544;51.032;5.866;2023-02-28T00:22:43;3.52;61.14
68556;HTU21D;55544;51.032;5.866;2023-02-28T00:25:10;3.53;61.21
68556;HTU21D;55544;51.032;5.866;2023-02-28T00:27:37;3.53;61.02
68556;HTU21D;55544;51.032;5.866;2023-02-28T00:30:06;3.49;60.99
68556;HTU21D;55544;51.032;5.866;2023-02-28T00:32:33;3.47;61.21
68556;HTU21D;55544;51.032;5.866;2023-02-28T00:35:01;3.42;61.44
68556;HTU21D;55544;51.032;5.866;2023-02-28T00:37:26;3.41;61.41
68556;HTU21D;55544;51.032;5.866;2023-02-28T00:39:52;3.38;61.76
68556;HTU21D;55544;51.032;5.866;2023-02-28T00:42:18;3.36;61.73
68556;HTU21D;55544;51.032;5.866;2023-02-28T00:44:46;3.36;61.73
68556;HTU21D;55544;51.032;5.866;2023-02-28T00:47:12;3.33;61.87
68556;HTU21D;55544;51.032;5.866;2023-02-28T00:49:38;3.27;62.01
68556;HTU21D;55544;51.032;5.866;2023-02-28T00:52:04;3.26;62.31
68556;HTU21D;55544;51.032;5.866;2023-02-28T00:54:29;3.21;62.43
68556;HTU21D;55544;51.032;5.866;2023-02-28T00:56:55;3.20;62.32
68556;HTU21D;55544;51.032;5.866;2023-02-28T00:59:21;3.15;62.42
68556;HTU21D;55544;51.032;5.866;2023-02-28T01:01:47;3.13;62.74
68556;HTU21D;55544;51.032;5.866;2023-02-28T01:04:14;3.12;62.82
68556;HTU21D;55544;51.032;5.866;2023-02-28T01:06:41;3.09;62.80
68556;HTU21D;55544;51.032;5.866;2023-02-28T01:09:10;3.05;62.73
68556;HTU21D;55544;51.032;5.866;2023-02-28T01:11:36;3.02;62.98
68556;HTU21D;55544;51.032;5.866;2023-02-28T01:14:03;3.01;63.27
68556;HTU21D;55544;51.032;5.866;2023-02-28T01:16:30;2.97;63.23
68556;HTU21D;55544;51.032;5.866;2023-02-28T01:18:56;2.96;63.50
68556;HTU21D;55544;51.032;5.866;2023-02-28T01:21:23;2.96;63.50
68556;HTU21D;55544;51.032;5.866;2023-02-28T01:23:49;2.95;63.44
68556;HTU21D;55544;51.032;5.866;2023-02-28T01:26:21;2.95;63.34
68556;HTU21D;55544;51.032;5.866;2023-02-28T01:28:48;2.86;63.57
68556;HTU21D;55544;51.032;5.866;2023-02-28T01:31:15;2.85;63.88
68556;HTU21D;55544;51.032;5.866;2023-02-28T01:33:41;2.84;64.11
68556;HTU21D;55544;51.032;5.866;2023-02-28T01:36:13;2.83;63.95
68556;HTU21D;55544;51.032;5.866;2023-02-28T01:38:40;2.80;64.10
68556;HTU21D;55544;51.032;5.866;2023-02-28T01:41:07;2.78;64.30
68556;HTU21D;55544;51.032;5.866;2023-02-28T01:46:19;2.78;64.45
68556;HTU21D;55544;51.032;5.866;2023-02-28T01:49:06;2.78;64.35
68556;HTU21D;55544;51.032;5.866;2023-02-28T01:54:12;2.78;64.37
68556;HTU21D;55544;51.032;5.866;2023-02-28T01:56:46;2.76;64.34
68556;HTU21D;55544;51.032;5.866;2023-02-28T02:00:03;2.78;64.43
68556;HTU21D;55544;51.032;5.866;2023-02-28T02:02:17;2.78;64.30
68556;HTU21D;55544;51.032;5.866;2023-02-28T02:04:58;2.76;64.18
68556;HTU21D;55544;51.032;5.866;2023-02-28T02:07:30;2.72;64.30
68556;HTU21D;55544;51.032;5.866;2023-02-28T02:18:47;2.73;64.47
68556;HTU21D;55544;51.032;5.866;2023-02-28T02:24:03;2.72;64.30
68556;HTU21D;55544;51.032;5.866;2023-02-28T02:35:24;2.76;64.19
68556;HTU21D;55544;51.032;5.866;2023-02-28T02:43:35;2.79;63.91
68556;HTU21D;55544;51.032;5.866;2023-02-28T02:46:14;2.81;63.64
68556;HTU21D;55544;51.032;5.866;2023-02-28T02:48:46;2.81;63.58
68556;HTU21D;55544;51.032;5.866;2023-02-28T02:51:20;2.82;63.73
68556;HTU21D;55544;51.032;5.866;2023-02-28T02:53:54;2.82;63.63
68556;HTU21D;55544;51.032;5.866;2023-02-28T02:56:25;2.82;63.70
68556;HTU21D;55544;51.032;5.866;2023-02-28T02:59:04;2.85;63.36
68556;HTU21D;55544;51.032;5.866;2023-02-28T03:01:34;2.84;63.19
68556;HTU21D;55544;51.032;5.866;2023-02-28T03:04:16;2.81;63.04
68556;HTU21D;55544;51.032;5.866;2023-02-28T03:06:43;2.79;63.14
68556;HTU21D;55544;51.032;5.866;2023-02-28T03:09:09;2.75;63.30
68556;HTU21D;55544;51.032;5.866;2023-02-28T03:11:37;2.73;63.43
68556;HTU21D;55544;51.032;5.866;2023-02-28T03:14:38;2.69;63.52
68556;HTU21D;55544;51.032;5.866;2023-02-28T03:20:32;2.59;64.26
68556;HTU21D;55544;51.032;5.866;2023-02-28T03:23:19;2.56;64.37
68556;HTU21D;55544;51.032;5.866;2023-02-28T03:29:23;2.44;64.68
68556;HTU21D;55544;51.032;5.866;2023-02-28T03:37:35;2.37;65.51
68556;HTU21D;55544;51.032;5.866;2023-02-28T03:40:09;2.40;65.62
68556;HTU21D;55544;51.032;5.866;2023-02-28T03:42:41;2.41;65.77
68556;HTU21D;55544;51.032;5.866;2023-02-28T03:45:19;2.41;65.78
68556;HTU21D;55544;51.032;5.866;2023-02-28T03:47:58;2.43;65.61
68556;HTU21D;55544;51.032;5.866;2023-02-28T03:50:42;2.39;65.40
68556;HTU21D;55544;51.032;5.866;2023-02-28T03:53:27;2.35;65.53
68556;HTU21D;55544;51.032;5.866;2023-02-28T03:56:01;2.31;65.82
68556;HTU21D;55544;51.032;5.866;2023-02-28T03:58:42;2.31;66.07
68556;HTU21D;55544;51.032;5.866;2023-02-28T04:03:57;2.35;66.12
68556;HTU21D;55544;51.032;5.866;2023-02-28T04:06:24;2.37;66.07
68556;HTU21D;55544;51.032;5.866;2023-02-28T04:08:50;2.36;66.10
68556;HTU21D;55544;51.032;5.866;2023-02-28T04:13:42;2.39;65.95
68556;HTU21D;55544;51.032;5.866;2023-02-28T04:16:08;2.40;65.75
68556;HTU21D;55544;51.032;5.866;2023-02-28T04:18:41;2.41;65.77
68556;HTU21D;55544;51.032;5.866;2023-02-28T04:21:09;2.41;65.71
68556;HTU21D;55544;51.032;5.866;2023-02-28T04:23:35;2.40;65.75
68556;HTU21D;55544;51.032;5.866;2023-02-28T04:26:00;2.38;65.62
68556;HTU21D;55544;51.032;5.866;2023-02-28T04:28:26;2.37;65.69
68556;HTU21D;55544;51.032;5.866;2023-02-28T04:30:56;2.37;65.75
68556;HTU21D;55544;51.032;5.866;2023-02-28T04:33:22;2.37;65.68
68556;HTU21D;55544;51.032;5.866;2023-02-28T04:35:48;2.37;65.59
68556;HTU21D;55544;51.032;5.866;2023-02-28T04:38:13;2.36;65.60
68556;HTU21D;55544;51.032;5.866;2023-02-28T04:40:39;2.35;65.48
68556;HTU21D;55544;51.032;5.866;2023-02-28T04:43:05;2.32;65.40
68556;HTU21D;55544;51.032;5.866;2023-02-28T04:45:30;2.32;65.35
68556;HTU21D;55544;51.032;5.866;2023-02-28T04:47:58;2.30;65.40
68556;HTU21D;55544;51.032;5.866;2023-02-28T04:50:24;2.29;65.35
68556;HTU21D;55544;51.032;5.866;2023-02-28T04:52:49;2.26;65.17
68556;HTU21D;55544;51.032;5.866;2023-02-28T04:55:15;2.25;65.09
68556;HTU21D;55544;51.032;5.866;2023-02-28T04:57:41;2.21;65.26
68556;HTU21D;55544;51.032;5.866;2023-02-28T05:00:09;2.17;65.37
68556;HTU21D;55544;51.032;5.866;2023-02-28T05:02:38;2.15;65.23
68556;HTU21D;55544;51.032;5.866;2023-02-28T05:05:05;2.15;65.25
68556;HTU21D;55544;51.032;5.866;2023-02-28T05:07:30;2.12;65.26
68556;HTU21D;55544;51.032;5.866;2023-02-28T05:09:56;2.11;65.21
68556;HTU21D;55544;51.032;5.866;2023-02-28T05:12:22;2.07;65.32
68556;HTU21D;55544;51.032;5.866;2023-02-28T05:14:47;2.02;65.60
68556;HTU21D;55544;51.032;5.866;2023-02-28T05:17:13;1.94;65.66
68556;HTU21D;55544;51.032;5.866;2023-02-28T05:19:39;1.88;66.14
68556;HTU21D;55544;51.032;5.866;2023-02-28T05:22:04;1.84;66.24
68556;HTU21D;55544;51.032;5.866;2023-02-28T05:24:30;1.82;66.23
68556;HTU21D;55544;51.032;5.866;2023-02-28T05:26:56;1.77;66.16
68556;HTU21D;55544;51.032;5.866;2023-02-28T05:29:22;1.75;66.08
68556;HTU21D;55544;51.032;5.866;2023-02-28T05:31:48;1.73;65.99
68556;HTU21D;55544;51.032;5.866;2023-02-28T05:34:13;1.70;66.11
68556;HTU21D;55544;51.032;5.866;2023-02-28T05:36:41;1.68;66.28
68556;HTU21D;55544;51.032;5.866;2023-02-28T05:39:07;1.70;66.37
68556;HTU21D;55544;51.032;5.866;2023-02-28T05:41:39;1.68;66.38
68556;HTU21D;55544;51.032;5.866;2023-02-28T05:44:05;1.70;66.46
68556;HTU21D;55544;51.032;5.866;2023-02-28T05:46:30;1.70;66.36
68556;HTU21D;55544;51.032;5.866;2023-02-28T05:48:56;1.70;66.21
68556;HTU21D;55544;51.032;5.866;2023-02-28T05:51:23;1.65;66.22
68556;HTU21D;55544;51.032;5.866;2023-02-28T05:53:48;1.62;66.30
68556;HTU21D;55544;51.032;5.866;2023-02-28T05:56:15;1.60;66.30
68556;HTU21D;55544;51.032;5.866;2023-02-28T05:58:41;1.55;66.46
68556;HTU21D;55544;51.032;5.866;2023-02-28T06:01:34;1.54;66.27
68556;HTU21D;55544;51.032;5.866;2023-02-28T06:04:02;1.50;66.16
68556;HTU21D;55544;51.032;5.866;2023-02-28T06:06:29;1.48;66.30
68556;HTU21D;55544;51.032;5.866;2023-02-28T06:08:56;1.47;66.42
68556;HTU21D;55544;51.032;5.866;2023-02-28T06:11:22;1.45;66.49
68556;HTU21D;55544;51.032;5.866;2023-02-28T06:14:00;1.43;66.55
68556;HTU21D;55544;51.032;5.866;2023-02-28T06:16:27;1.42;66.53
68556;HTU21D;55544;51.032;5.866;2023-02-28T06:18:53;1.41;66.53
68556;HTU21D;55544;51.032;5.866;2023-02-28T06:21:22;1.40;66.66
68556;HTU21D;55544;51.032;5.866;2023-02-28T06:23:48;1.41;66.65
68556;HTU21D;55544;51.032;5.866;2023-02-28T06:26:13;1.39;66.40
68556;HTU21D;55544;51.032;5.866;2023-02-28T06:28:39;1.40;66.46
68556;HTU21D;55544;51.032;5.866;2023-02-28T06:31:10;1.39;66.35
68556;HTU21D;55544;51.032;5.866;2023-02-28T06:33:37;1.39;66.33
68556;HTU21D;55544;51.032;5.866;2023-02-28T06:36:04;1.39;66.24
68556;HTU21D;55544;51.032;5.866;2023-02-28T06:38:31;1.40;66.27
68556;HTU21D;55544;51.032;5.866;2023-02-28T06:40:59;1.39;66.11
68556;HTU21D;55544;51.032;5.866;2023-02-28T06:43:28;1.38;65.95
68556;HTU21D;55544;51.032;5.866;2023-02-28T06:45:55;1.34;65.92
68556;HTU21D;55544;51.032;5.866;2023-02-28T06:48:21;1.33;66.10
68556;HTU21D;55544;51.032;5.866;2023-02-28T06:50:46;1.31;66.13
68556;HTU21D;55544;51.032;5.866;2023-02-28T06:53:12;1.28;66.29
68556;HTU21D;55544;51.032;5.866;2023-02-28T06:55:39;1.28;66.24
68556;HTU21D;55544;51.032;5.866;2023-02-28T06:58:05;1.28;66.36
68556;HTU21D;55544;51.032;5.866;2023-02-28T07:00:44;1.33;66.60
68556;HTU21D;55544;51.032;5.866;2023-02-28T07:03:11;1.40;66.51
68556;HTU21D;55544;51.032;5.866;2023-02-28T07:05:39;1.48;66.32
68556;HTU21D;55544;51.032;5.866;2023-02-28T07:08:06;1.54;66.21
68556;HTU21D;55544;51.032;5.866;2023-02-28T07:10:33;1.60;65.90
68556;HTU21D;55544;51.032;5.866;2023-02-28T07:13:00;1.67;65.72
68556;HTU21D;55544;51.032;5.866;2023-02-28T07:15:26;1.73;65.53
68556;HTU21D;55544;51.032;5.866;2023-02-28T07:17:51;1.77;65.37
68556;HTU21D;55544;51.032;5.866;2023-02-28T07:20:17;1.79;65.21
68556;HTU21D;55544;51.032;5.866;2023-02-28T07:22:43;1.81;65.21
68556;HTU21D;55544;51.032;5.866;2023-02-28T07:25:10;1.85;65.17
68556;HTU21D;55544;51.032;5.866;2023-02-28T07:27:35;1.85;65.21
68556;HTU21D;55544;51.032;5.866;2023-02-28T07:30:01;1.88;65.24
68556;HTU21D;55544;51.032;5.866;2023-02-28T07:32:29;1.91;65.14
68556;HTU21D;55544;51.032;5.866;2023-02-28T07:34:54;1.92;65.20
68556;HTU21D;55544;51.032;5.866;2023-02-28T07:37:20;1.94;65.14
68556;HTU21D;55544;51.032;5.866;2023-02-28T07:39:46;1.95;65.11
68556;HTU21D;55544;51.032;5.866;2023-02-28T07:42:12;1.98;65.15
68556;HTU21D;55544;51.032;5.866;2023-02-28T07:44:39;2.03;65.03
68556;HTU21D;55544;51.032;5.866;2023-02-28T07:47:14;2.08;65.01
68556;HTU21D;55544;51.032;5.866;2023-02-28T07:49:40;2.14;64.94
68556;HTU21D;55544;51.032;5.866;2023-02-28T07:52:07;2.21;64.83
68556;HTU21D;55544;51.032;5.866;2023-02-28T07:54:33;2.30;64.74
68556;HTU21D;55544;51.032;5.866;2023-02-28T07:56:59;2.45;64.44
68556;HTU21D;55544;51.032;5.866;2023-02-28T07:59:25;2.78;63.60
68556;HTU21D;55544;51.032;5.866;2023-02-28T08:01:51;3.73;60.78
68556;HTU21D;55544;51.032;5.866;2023-02-28T08:04:17;6.20;56.86
68556;HTU21D;55544;51.032;5.866;2023-02-28T08:06:43;8.43;51.19
68556;HTU21D;55544;51.032;5.866;2023-02-28T08:09:09;9.41;47.57
68556;HTU21D;55544;51.032;5.866;2023-02-28T08:11:35;9.81;45.96
68556;HTU21D;55544;51.032;5.866;2023-02-28T08:14:02;9.41;45.46
68556;HTU21D;55544;51.032;5.866;2023-02-28T08:16:28;8.46;45.83
68556;HTU21D;55544;51.032;5.866;2023-02-28T08:18:53;8.09;46.90
68556;HTU21D;55544;51.032;5.866;2023-02-28T08:21:20;7.89;47.58
68556;HTU21D;55544;51.032;5.866;2023-02-28T08:23:47;7.49;48.46
68556;HTU21D;55544;51.032;5.866;2023-02-28T08:26:15;6.98;49.72
68556;HTU21D;55544;51.032;5.866;2023-02-28T08:28:41;6.49;51.13
68556;HTU21D;55544;51.032;5.866;2023-02-28T08:31:11;6.08;52.44
68556;HTU21D;55544;51.032;5.866;2023-02-28T08:33:39;5.76;53.55
68556;HTU21D;55544;51.032;5.866;2023-02-28T08:36:05;5.51;54.42
68556;HTU21D;55544;51.032;5.866;2023-02-28T08:38:31;5.35;54.98
68556;HTU21D;55544;51.032;5.866;2023-02-28T08:40:59;5.21;55.48
68556;HTU21D;55544;51.032;5.866;2023-02-28T08:43:25;5.18;55.59
68556;HTU21D;55544;51.032;5.866;2023-02-28T08:45:52;5.16;55.66
68556;HTU21D;55544;51.032;5.866;2023-02-28T08:48:18;5.21;55.37
68556;HTU21D;55544;51.032;5.866;2023-02-28T08:50:44;5.22;54.79
68556;HTU21D;55544;51.032;5.866;2023-02-28T08:53:09;5.17;54.25
68556;HTU21D;55544;51.032;5.866;2023-02-28T08:55:35;5.15;53.90
68556;HTU21D;55544;51.032;5.866;2023-02-28T08:58:01;5.20;53.97
68556;HTU21D;55544;51.032;5.866;2023-02-28T09:00:27;5.25;53.50
68556;HTU21D;55544;51.032;5.866;2023-02-28T09:02:53;5.33;53.61
68556;HTU21D;55544;51.032;5.866;2023-02-28T09:05:20;5.46;53.68
68556;HTU21D;55544;51.032;5.866;2023-02-28T09:07:45;5.52;52.78
68556;HTU21D;55544;51.032;5.866;2023-02-28T09:10:11;5.55;52.30
68556;HTU21D;55544;51.032;5.866;2023-02-28T09:12:37;5.65;51.68
68556;HTU21D;55544;51.032;5.866;2023-02-28T09:15:04;5.70;50.93
68556;HTU21D;55544;51.032;5.866;2023-02-28T09:17:29;5.79;50.88
68556;HTU21D;55544;51.032;5.866;2023-02-28T09:19:55;5.97;50.36
68556;HTU21D;55544;51.032;5.866;2023-02-28T09:22:21;6.07;49.71
68556;HTU21D;55544;51.032;5.866;2023-02-28T09:24:47;6.15;48.64
68556;HTU21D;55544;51.032;5.866;2023-02-28T09:27:12;6.27;48.11
68556;HTU21D;55544;51.032;5.866;2023-02-28T09:29:38;6.40;47.49
68556;HTU21D;55544;51.032;5.866;2023-02-28T09:32:04;6.49;47.06
68556;HTU21D;55544;51.032;5.866;2023-02-28T09:34:31;6.53;46.75
68556;HTU21D;55544;51.032;5.866;2023-02-28T09:36:57;6.52;46.17
68556;HTU21D;55544;51.032;5.866;2023-02-28T09:39:23;6.58;44.00
68556;HTU21D;55544;51.032;5.866;2023-02-28T09:41:52;6.59;44.77
68556;HTU21D;55544;51.032;5.866;2023-02-28T09:44:43;6.71;45.02
68556;HTU21D;55544;51.032;5.866;2023-02-28T09:49:58;7.11;43.32
68556;HTU21D;55544;51.032;5.866;2023-02-28T09:52:30;7.18;42.79
68556;HTU21D;55544;51.032;5.866;2023-02-28T09:57:43;7.28;42.21
68556;HTU21D;55544;51.032;5.866;2023-02-28T10:00:19;7.40;41.51
68556;HTU21D;55544;51.032;5.866;2023-02-28T10:05:30;7.62;40.57
68556;HTU21D;55544;51.032;5.866;2023-02-28T10:10:51;7.74;40.68
68556;HTU21D;55544;51.032;5.866;2023-02-28T10:15:58;7.92;39.36
68556;HTU21D;55544;51.032;5.866;2023-02-28T10:21:28;7.87;38.93
68556;HTU21D;55544;51.032;5.866;2023-02-28T10:24:44;8.02;39.29
68556;HTU21D;55544;51.032;5.866;2023-02-28T10:26:52;8.22;38.38
68556;HTU21D;55544;51.032;5.866;2023-02-28T10:29:21;8.33;38.24
68556;HTU21D;55544;51.032;5.866;2023-02-28T10:31:47;8.39;37.50
68556;HTU21D;55544;51.032;5.866;2023-02-28T10:34:13;8.36;36.85
68556;HTU21D;55544;51.032;5.866;2023-02-28T10:36:40;8.34;36.98
68556;HTU21D;55544;51.032;5.866;2023-02-28T10:39:34;8.45;37.17
68556;HTU21D;55544;51.032;5.866;2023-02-28T10:42:00;8.48;36.34
68556;HTU21D;55544;51.032;5.866;2023-02-28T10:44:26;8.56;35.93
68556;HTU21D;55544;51.032;5.866;2023-02-28T10:46:52;8.53;35.28
68556;HTU21D;55544;51.032;5.866;2023-02-28T10:49:26;8.45;35.79
68556;HTU21D;55544;51.032;5.866;2023-02-28T10:51:59;8.53;36.05
68556;HTU21D;55544;51.032;5.866;2023-02-28T10:54:36;8.76;36.25
68556;HTU21D;55544;51.032;5.866;2023-02-28T10:57:19;9.03;35.71
68556;HTU21D;55544;51.032;5.866;2023-02-28T10:59:46;9.19;34.76
68556;HTU21D;55544;51.032;5.866;2023-02-28T11:02:36;9.35;35.45
68556;HTU21D;55544;51.032;5.866;2023-02-28T11:07:57;9.75;34.07
68556;HTU21D;55544;51.032;5.866;2023-02-28T11:10:28;9.85;34.08
68556;HTU21D;55544;51.032;5.866;2023-02-28T11:12:57;9.89;33.32
68556;HTU21D;55544;51.032;5.866;2023-02-28T11:15:29;9.95;33.51
68556;HTU21D;55544;51.032;5.866;2023-02-28T11:20:53;9.70;33.69
68556;HTU21D;55544;51.032;5.866;2023-02-28T11:23:21;9.77;34.07
68556;HTU21D;55544;51.032;5.866;2023-02-28T11:25:58;9.89;33.81
68556;HTU21D;55544;51.032;5.866;2023-02-28T11:28:36;9.84;33.19
68556;HTU21D;55544;51.032;5.866;2023-02-28T11:33:48;9.57;33.47
68556;HTU21D;55544;51.032;5.866;2023-02-28T11:36:28;9.52;33.49
68556;HTU21D;55544;51.032;5.866;2023-02-28T11:38:56;9.59;33.91
68556;HTU21D;55544;51.032;5.866;2023-02-28T11:42:02;9.67;33.59
68556;HTU21D;55544;51.032;5.866;2023-02-28T11:52:52;10.36;32.78
68556;HTU21D;55544;51.032;5.866;2023-02-28T11:55:25;10.40;31.74
68556;HTU21D;55544;51.032;5.866;2023-02-28T11:58:04;10.27;31.87
68556;HTU21D;55544;51.032;5.866;2023-02-28T12:06:05;10.46;30.71
68556;HTU21D;55544;51.032;5.866;2023-02-28T12:11:29;10.86;32.02
68556;HTU21D;55544;51.032;5.866;2023-02-28T12:22:28;11.60;31.05
68556;HTU21D;55544;51.032;5.866;2023-02-28T12:27:46;12.20;30.32
68556;HTU21D;55544;51.032;5.866;2023-02-28T12:32:56;12.73;30.45
68556;HTU21D;55544;51.032;5.866;2023-02-28T12:43:34;12.50;29.05
68556;HTU21D;55544;51.032;5.866;2023-02-28T12:49:02;12.47;30.12
68556;HTU21D;55544;51.032;5.866;2023-02-28T12:51:31;12.66;30.00
68556;HTU21D;55544;51.032;5.866;2023-02-28T12:59:14;12.99;28.74
68556;HTU21D;55544;51.032;5.866;2023-02-28T13:10:20;12.66;29.51
68556;HTU21D;55544;51.032;5.866;2023-02-28T13:12:54;12.49;29.99
68556;HTU21D;55544;51.032;5.866;2023-02-28T13:15:27;12.38;30.79
68556;HTU21D;55544;51.032;5.866;2023-02-28T13:17:57;12.45;30.37
68556;HTU21D;55544;51.032;5.866;2023-02-28T13:22:54;12.35;29.56
68556;HTU21D;55544;51.032;5.866;2023-02-28T13:31:24;12.40;31.18
68556;HTU21D;55544;51.032;5.866;2023-02-28T13:36:30;12.28;31.31
68556;HTU21D;55544;51.032;5.866;2023-02-28T13:42:35;11.78;32.18
68556;HTU21D;55544;51.032;5.866;2023-02-28T13:47:31;11.62;32.16
68556;HTU21D;55544;51.032;5.866;2023-02-28T13:50:31;11.62;32.22
68556;HTU21D;55544;51.032;5.866;2023-02-28T14:06:56;12.90;30.48
68556;HTU21D;55544;51.032;5.866;2023-02-28T14:09:30;12.85;29.93
68556;HTU21D;55544;51.032;5.866;2023-02-28T14:15:02;12.94;30.31
68556;HTU21D;55544;51.032;5.866;2023-02-28T14:17:29;13.11;29.77
68556;HTU21D;55544;51.032;5.866;2023-02-28T14:19:57;13.12;30.10
68556;HTU21D;55544;51.032;5.866;2023-02-28T14:30:53;13.50;29.46
68556;HTU21D;55544;51.032;5.866;2023-02-28T14:33:38;13.38;29.29
68556;HTU21D;55544;51.032;5.866;2023-02-28T14:39:01;13.49;29.24
68556;HTU21D;55544;51.032;5.866;2023-02-28T14:41:38;13.71;29.45
68556;HTU21D;55544;51.032;5.866;2023-02-28T14:44:26;14.01;28.85
68556;HTU21D;55544;51.032;5.866;2023-02-28T14:46:59;13.99;27.89
68556;HTU21D;55544;51.032;5.866;2023-02-28T14:49:42;13.84;28.39
68556;HTU21D;55544;51.032;5.866;2023-02-28T14:54:39;14.09;28.55
68556;HTU21D;55544;51.032;5.866;2023-02-28T14:57:06;14.24;27.52
68556;HTU21D;55544;51.032;5.866;2023-02-28T14:59:34;14.06;27.37
68556;HTU21D;55544;51.032;5.866;2023-02-28T15:02:19;13.91;27.62
68556;HTU21D;55544;51.032;5.866;2023-02-28T15:04:53;13.77;27.78
68556;HTU21D;55544;51.032;5.866;2023-02-28T15:07:19;13.58;28.31
68556;HTU21D;55544;51.032;5.866;2023-02-28T15:09:45;13.64;28.63
68556;HTU21D;55544;51.032;5.866;2023-02-28T15:12:15;13.67;28.39
68556;HTU21D;55544;51.032;5.866;2023-02-28T15:14:43;13.61;28.67
68556;HTU21D;55544;51.032;5.866;2023-02-28T15:17:20;13.76;28.91
68556;HTU21D;55544;51.032;5.866;2023-02-28T15:19:52;13.70;28.50
68556;HTU21D;55544;51.032;5.866;2023-02-28T15:22:29;13.56;28.29
68556;HTU21D;55544;51.032;5.866;2023-02-28T15:24:57;13.47;28.57
68556;HTU21D;55544;51.032;5.866;2023-02-28T15:27:27;13.61;28.77
68556;HTU21D;55544;51.032;5.866;2023-02-28T15:29:58;13.76;28.63
68556;HTU21D;55544;51.032;5.866;2023-02-28T15:32:36;13.89;28.42
68556;HTU21D;55544;51.032;5.866;2023-02-28T15:40:37;13.69;28.44
68556;HTU21D;55544;51.032;5.866;2023-02-28T15:43:06;13.55;28.65
68556;HTU21D;55544;51.032;5.866;2023-02-28T15:45:38;13.35;29.01
68556;HTU21D;55544;51.032;5.866;2023-02-28T15:48:23;13.14;29.31
68556;HTU21D;55544;51.032;5.866;2023-02-28T15:51:00;13.07;29.67
68556;HTU21D;55544;51.032;5.866;2023-02-28T15:53:35;13.10;29.96
68556;HTU21D;55544;51.032;5.866;2023-02-28T15:56:23;13.19;29.66
68556;HTU21D;55544;51.032;5.866;2023-02-28T15:58:56;13.29;30.28
68556;HTU21D;55544;51.032;5.866;2023-02-28T16:01:28;13.46;29.77
68556;HTU21D;55544;51.032;5.866;2023-02-28T16:04:03;13.44;29.48
68556;HTU21D;55544;51.032;5.866;2023-02-28T16:06:36;13.23;29.56
68556;HTU21D;55544;51.032;5.866;2023-02-28T16:09:04;13.08;29.89
68556;HTU21D;55544;51.032;5.866;2023-02-28T16:11:37;13.00;30.15
68556;HTU21D;55544;51.032;5.866;2023-02-28T16:14:04;12.88;30.06
68556;HTU21D;55544;51.032;5.866;2023-02-28T16:16:31;12.76;30.10
68556;HTU21D;55544;51.032;5.866;2023-02-28T16:18:58;12.72;30.24
68556;HTU21D;55544;51.032;5.866;2023-02-28T16:21:25;12.73;30.38
68556;HTU21D;55544;51.032;5.866;2023-02-28T16:23:51;12.75;30.27
68556;HTU21D;55544;51.032;5.866;2023-02-28T16:26:23;12.67;29.90
68556;HTU21D;55544;51.032;5.866;2023-02-28T16:28:49;12.59;30.03
68556;HTU21D;55544;51.032;5.866;2023-02-28T16:31:16;12.55;30.20
68556;HTU21D;55544;51.032;5.866;2023-02-28T16:33:44;12.50;30.24
68556;HTU21D;55544;51.032;5.866;2023-02-28T16:36:22;12.46;30.60
68556;HTU21D;55544;51.032;5.866;2023-02-28T16:38:48;12.52;30.59
68556;HTU21D;55544;51.032;5.866;2023-02-28T16:41:19;12.56;30.87
68556;HTU21D;55544;51.032;5.866;2023-02-28T16:43:49;12.56;30.91
68556;HTU21D;55544;51.032;5.866;2023-02-28T16:46:16;12.36;30.67
68556;HTU21D;55544;51.032;5.866;2023-02-28T16:48:46;12.10;31.04
68556;HTU21D;55544;51.032;5.866;2023-02-28T16:51:17;11.88;31.41
68556;HTU21D;55544;51.032;5.866;2023-02-28T16:53:45;11.73;31.85
68556;HTU21D;55544;51.032;5.866;2023-02-28T16:56:19;11.58;32.02
68556;HTU21D;55544;51.032;5.866;2023-02-28T16:58:46;11.44;32.29
68556;HTU21D;55544;51.032;5.866;2023-02-28T17:01:12;11.27;32.56
68556;HTU21D;55544;51.032;5.866;2023-02-28T17:03:38;11.11;33.01
68556;HTU21D;55544;51.032;5.866;2023-02-28T17:06:19;10.94;33.52
68556;HTU21D;55544;51.032;5.866;2023-02-28T17:08:46;10.77;34.08
68556;HTU21D;55544;51.032;5.866;2023-02-28T17:11:12;10.64;34.33
68556;HTU21D;55544;51.032;5.866;2023-02-28T17:13:37;10.52;34.59
68556;HTU21D;55544;51.032;5.866;2023-02-28T17:16:04;10.43;34.93
68556;HTU21D;55544;51.032;5.866;2023-02-28T17:18:30;10.34;34.89
68556;HTU21D;55544;51.032;5.866;2023-02-28T17:21:00;10.20;35.03
68556;HTU21D;55544;51.032;5.866;2023-02-28T17:23:26;10.14;35.34
68556;HTU21D;55544;51.032;5.866;2023-02-28T17:25:52;10.09;35.64
68556;HTU21D;55544;51.032;5.866;2023-02-28T17:28:21;10.10;35.42
68556;HTU21D;55544;51.032;5.866;2023-02-28T17:30:47;10.04;35.37
68556;HTU21D;55544;51.032;5.866;2023-02-28T17:33:14;9.90;35.67
68556;HTU21D;55544;51.032;5.866;2023-02-28T17:35:40;9.82;36.11
68556;HTU21D;55544;51.032;5.866;2023-02-28T17:38:16;9.75;36.34
68556;HTU21D;55544;51.032;5.866;2023-02-28T17:40:42;9.67;36.56
68556;HTU21D;55544;51.032;5.866;2023-02-28T17:43:07;9.60;36.84
68556;HTU21D;55544;51.032;5.866;2023-02-28T17:45:33;9.54;37.11
68556;HTU21D;55544;51.032;5.866;2023-02-28T17:48:01;9.41;37.45
68556;HTU21D;55544;51.032;5.866;2023-02-28T17:50:27;9.32;37.79
68556;HTU21D;55544;51.032;5.866;2023-02-28T17:52:52;9.23;38.20
68556;HTU21D;55544;51.032;5.866;2023-02-28T17:55:18;9.10;38.57
68556;HTU21D;55544;51.032;5.866;2023-02-28T17:57:47;8.98;38.92
68556;HTU21D;55544;51.032;5.866;2023-02-28T18:00:15;8.90;39.20
68556;HTU21D;55544;51.032;5.866;2023-02-28T18:02:43;8.86;39.49
68556;HTU21D;55544;51.032;5.866;2023-02-28T18:05:10;8.82;39.64
68556;HTU21D;55544;51.032;5.866;2023-02-28T18:07:39;8.77;39.83
68556;HTU21D;55544;51.032;5.866;2023-02-28T18:10:06;8.74;39.97
68556;HTU21D;55544;51.032;5.866;2023-02-28T18:12:32;8.68;40.13
68556;HTU21D;55544;51.032;5.866;2023-02-28T18:14:58;8.63;40.36
68556;HTU21D;55544;51.032;5.866;2023-02-28T18:17:24;8.57;40.57
68556;HTU21D;55544;51.032;5.866;2023-02-28T18:19:49;8.53;40.68
68556;HTU21D;55544;51.032;5.866;2023-02-28T18:22:15;8.49;40.97
68556;HTU21D;55544;51.032;5.866;2023-02-28T18:24:41;8.47;41.04
68556;HTU21D;55544;51.032;5.866;2023-02-28T18:27:07;8.44;41.16
68556;HTU21D;55544;51.032;5.866;2023-02-28T18:29:34;8.43;41.34
68556;HTU21D;55544;51.032;5.866;2023-02-28T18:32:02;8.42;41.52
68556;HTU21D;55544;51.032;5.866;2023-02-28T18:34:28;8.42;41.38
68556;HTU21D;55544;51.032;5.866;2023-02-28T18:36:55;8.41;41.41
68556;HTU21D;55544;51.032;5.866;2023-02-28T18:39:21;8.36;41.42
68556;HTU21D;55544;51.032;5.866;2023-02-28T18:41:47;8.33;41.58
68556;HTU21D;55544;51.032;5.866;2023-02-28T18:44:13;8.27;41.73